createdAt,value
2023-03-16T00:01:29.876Z,5.18
2023-03-16T00:03:56.347Z,5.20
2023-03-16T00:06:25.238Z,5.23
2023-03-16T00:08:52.643Z,5.23
2023-03-16T00:11:22.101Z,5.24
2023-03-16T00:13:48.470Z,5.24
2023-03-16T00:16:17.981Z,5.25
2023-03-16T00:18:44.437Z,5.27
2023-03-16T00:21:20.839Z,5.28
2023-03-16T00:23:47.223Z,5.28
2023-03-16T00:26:13.691Z,5.30
2023-03-16T00:28:45.796Z,5.30
2023-03-16T00:31:12.288Z,5.30
2023-03-16T00:33:39.193Z,5.31
2023-03-16T00:36:13.748Z,5.30
2023-03-16T00:38:55.770Z,5.30
2023-03-16T00:41:22.922Z,5.31
2023-03-16T00:43:57.814Z,5.29
2023-03-16T00:46:26.563Z,5.29
2023-03-16T00:49:03.204Z,5.27
2023-03-16T00:51:36.408Z,5.26
2023-03-16T00:54:05.947Z,5.25
2023-03-16T00:56:32.340Z,5.26
2023-03-16T00:58:59.055Z,5.26
2023-03-16T01:01:32.695Z,5.27
2023-03-16T01:04:02.375Z,5.30
2023-03-16T01:06:31.155Z,5.30
2023-03-16T01:08:57.989Z,5.31
2023-03-16T01:11:25.501Z,5.31
2023-03-16T01:13:56.018Z,5.33
2023-03-16T01:16:23.312Z,5.33
2023-03-16T01:18:50.893Z,5.31
2023-03-16T01:21:21.278Z,5.30
2023-03-16T01:23:48.066Z,5.29
2023-03-16T01:26:18.598Z,5.30
2023-03-16T01:28:44.979Z,5.30
2023-03-16T01:31:16.556Z,5.31
2023-03-16T01:33:51.209Z,5.33
2023-03-16T01:36:20.233Z,5.33
2023-03-16T01:38:51.128Z,5.34
2023-03-16T01:41:17.500Z,5.34
2023-03-16T01:43:53.568Z,5.31
2023-03-16T01:46:25.684Z,5.34
2023-03-16T01:49:21.419Z,5.32
2023-03-16T01:52:12.558Z,5.31
2023-03-16T01:55:32.054Z,5.34
2023-03-16T01:58:20.713Z,5.33
2023-03-16T02:00:47.101Z,5.35
2023-03-16T02:03:55.494Z,5.33
2023-03-16T02:06:27.014Z,5.33
2023-03-16T02:08:55.377Z,5.31
2023-03-16T02:11:27.951Z,5.32
2023-03-16T02:14:02.134Z,5.33
2023-03-16T02:16:33.123Z,5.30
2023-03-16T02:19:02.288Z,5.34
2023-03-16T02:21:48.933Z,5.31
2023-03-16T02:24:18.067Z,5.36
2023-03-16T02:27:04.487Z,5.37
2023-03-16T02:30:14.291Z,5.39
2023-03-16T02:32:46.010Z,5.41
2023-03-16T02:35:21.425Z,5.39
2023-03-16T02:37:47.971Z,5.43
2023-03-16T02:40:30.899Z,5.42
2023-03-16T02:43:20.262Z,5.40
2023-03-16T02:45:53.515Z,5.40
2023-03-16T02:54:06.838Z,5.39
2023-03-16T02:56:36.218Z,5.39
2023-03-16T02:59:02.827Z,5.36
2023-03-16T03:01:31.799Z,5.35
2023-03-16T03:04:02.061Z,5.36
2023-03-16T03:06:28.981Z,5.40
2023-03-16T03:08:56.312Z,5.38
2023-03-16T03:11:25.457Z,5.38
2023-03-16T03:13:52.102Z,5.38
2023-03-16T03:16:21.271Z,5.35
2023-03-16T03:18:48.630Z,5.34
2023-03-16T03:21:15.333Z,5.37
2023-03-16T03:23:50.611Z,5.38
2023-03-16T03:26:17.284Z,5.39
2023-03-16T03:28:46.889Z,5.38
2023-03-16T03:31:23.446Z,5.38
2023-03-16T03:33:56.331Z,5.35
2023-03-16T03:36:22.658Z,5.34
2023-03-16T03:38:54.713Z,5.31
2023-03-16T03:41:22.475Z,5.32
2023-03-16T03:43:49.400Z,5.29
2023-03-16T03:46:18.941Z,5.25
2023-03-16T03:48:45.426Z,5.25
2023-03-16T03:51:11.819Z,5.23
2023-03-16T03:53:48.742Z,5.22
2023-03-16T03:56:15.142Z,5.21
2023-03-16T03:58:44.986Z,5.21
2023-03-16T04:01:14.488Z,5.19
2023-03-16T04:03:47.244Z,5.16
2023-03-16T04:06:16.625Z,5.15
2023-03-16T04:08:43.023Z,5.12
2023-03-16T04:11:09.971Z,5.14
2023-03-16T04:13:39.321Z,5.13
2023-03-16T04:16:05.950Z,5.11
2023-03-16T04:18:46.037Z,5.09
2023-03-16T04:21:22.611Z,5.09
2023-03-16T04:23:49.868Z,5.05
2023-03-16T04:26:41.345Z,5.02
2023-03-16T04:29:07.844Z,4.99
2023-03-16T04:31:34.229Z,5.00
2023-03-16T04:34:04.677Z,4.97
2023-03-16T04:36:34.191Z,4.96
2023-03-16T04:39:00.657Z,4.99
2023-03-16T04:41:30.175Z,4.99
2023-03-16T04:43:58.130Z,4.98
2023-03-16T04:46:39.343Z,4.98
2023-03-16T04:49:09.154Z,5.00
2023-03-16T04:51:41.225Z,5.00
2023-03-16T04:54:08.127Z,5.03
2023-03-16T04:56:44.700Z,5.05
2023-03-16T04:59:11.267Z,5.08
2023-03-16T05:01:40.888Z,5.09
2023-03-16T05:04:15.030Z,5.09
2023-03-16T05:06:47.935Z,5.09
2023-03-16T05:09:14.396Z,5.12
2023-03-16T05:11:46.847Z,5.15
2023-03-16T05:14:13.282Z,5.17
2023-03-16T05:16:39.655Z,5.18
2023-03-16T05:19:08.838Z,5.18
2023-03-16T05:21:38.696Z,5.16
2023-03-16T05:24:06.005Z,5.15
2023-03-16T05:26:41.489Z,5.17
2023-03-16T05:29:07.881Z,5.16
2023-03-16T05:31:42.748Z,5.14
2023-03-16T05:34:09.114Z,5.18
2023-03-16T05:36:40.894Z,5.19
2023-03-16T05:39:10.257Z,5.21
2023-03-16T05:41:39.393Z,5.18
2023-03-16T05:44:06.213Z,5.18
2023-03-16T05:46:33.320Z,5.19
2023-03-16T05:49:00.210Z,5.19
2023-03-16T05:51:35.711Z,5.22
2023-03-16T05:54:02.165Z,5.19
2023-03-16T05:56:31.567Z,5.18
2023-03-16T05:59:01.191Z,5.18
2023-03-16T06:01:27.804Z,5.19
2023-03-16T06:03:57.209Z,5.21
2023-03-16T06:06:23.699Z,5.22
2023-03-16T06:08:50.109Z,5.24
2023-03-16T06:16:43.945Z,5.31
2023-03-16T06:19:13.492Z,5.30
2023-03-16T06:21:46.365Z,5.27
2023-03-16T06:24:15.918Z,5.27
2023-03-16T06:26:49.734Z,5.29
2023-03-16T06:29:18.943Z,5.28
2023-03-16T06:34:25.735Z,5.36
2023-03-16T06:36:53.720Z,5.36
2023-03-16T06:39:22.969Z,5.40
2023-03-16T06:41:49.407Z,5.44
2023-03-16T06:44:18.568Z,5.45
2023-03-16T06:46:47.984Z,5.49
2023-03-16T06:49:14.380Z,5.55
2023-03-16T06:51:44.358Z,5.55
2023-03-16T06:54:13.606Z,5.57
2023-03-16T06:56:48.465Z,5.58
2023-03-16T06:59:14.969Z,5.64
2023-03-16T07:01:42.271Z,5.70
2023-03-16T07:04:17.929Z,5.83
2023-03-16T07:06:44.300Z,5.92
2023-03-16T07:09:12.402Z,6.01
2023-03-16T07:11:41.905Z,6.05
2023-03-16T07:14:08.298Z,6.10
2023-03-16T07:16:48.357Z,6.09
2023-03-16T07:19:17.592Z,6.09
2023-03-16T07:21:46.296Z,6.03
2023-03-16T07:24:12.966Z,6.01
2023-03-16T07:29:25.927Z,6.00
2023-03-16T07:31:55.597Z,6.02
2023-03-16T07:34:25.091Z,6.07
2023-03-16T07:36:56.795Z,6.01
2023-03-16T07:39:26.241Z,5.96
2023-03-16T07:41:52.822Z,5.96
2023-03-16T07:44:22.288Z,5.97
2023-03-16T07:46:55.979Z,5.93
2023-03-16T07:49:25.542Z,5.89
2023-03-16T07:51:55.202Z,5.88
2023-03-16T07:54:21.573Z,5.88
2023-03-16T07:56:49.792Z,5.91
2023-03-16T07:59:21.201Z,5.92
2023-03-16T08:01:50.690Z,5.99
2023-03-16T08:04:17.076Z,6.01
2023-03-16T08:09:26.701Z,6.14
2023-03-16T08:11:56.846Z,6.25
2023-03-16T08:14:23.743Z,6.40
2023-03-16T08:16:54.891Z,6.54
2023-03-16T08:19:21.306Z,6.67
2023-03-16T08:22:00.711Z,6.86
2023-03-16T08:24:29.459Z,7.00
2023-03-16T08:27:05.704Z,7.02
2023-03-16T08:29:36.948Z,7.00
2023-03-16T08:32:03.575Z,7.01
2023-03-16T08:34:33.634Z,7.01
2023-03-16T08:37:02.472Z,7.04
2023-03-16T08:39:32.470Z,7.02
2023-03-16T08:41:58.870Z,7.03
2023-03-16T08:44:36.269Z,7.08
2023-03-16T08:47:07.762Z,7.16
2023-03-16T08:49:37.752Z,7.14
2023-03-16T08:52:05.248Z,7.18
2023-03-16T08:54:34.761Z,7.21
2023-03-16T08:57:04.475Z,7.22
2023-03-16T08:59:32.352Z,7.30
2023-03-16T09:02:00.552Z,7.37
2023-03-16T09:04:28.406Z,7.48
2023-03-16T09:07:11.662Z,7.48
2023-03-16T09:09:43.222Z,7.44
2023-03-16T09:12:12.676Z,7.53
2023-03-16T09:14:41.954Z,7.55
2023-03-16T09:17:13.682Z,7.61
2023-03-16T09:19:51.080Z,7.58
2023-03-16T09:22:21.551Z,7.49
2023-03-16T09:24:57.068Z,7.44
2023-03-16T09:27:23.608Z,7.39
2023-03-16T09:29:53.400Z,7.41
2023-03-16T09:32:23.147Z,7.41
2023-03-16T09:34:49.583Z,7.41
2023-03-16T09:37:20.990Z,7.41
2023-03-16T09:39:51.833Z,7.46
2023-03-16T09:42:37.730Z,7.40
2023-03-16T09:45:28.982Z,7.39
2023-03-16T09:48:03.022Z,7.46
2023-03-16T09:50:47.169Z,7.54
2023-03-16T09:53:38.422Z,7.72
2023-03-16T09:56:15.946Z,7.82
2023-03-16T09:58:42.660Z,8.01
2023-03-16T10:01:18.832Z,8.06
2023-03-16T10:04:06.102Z,8.22
2023-03-16T10:06:42.773Z,8.46
2023-03-16T10:09:47.426Z,8.68
2023-03-16T10:12:18.070Z,8.80
2023-03-16T10:15:12.399Z,9.13
2023-03-16T10:20:41.970Z,9.44
2023-03-16T10:23:23.449Z,9.77
2023-03-16T10:25:54.956Z,9.88
2023-03-16T10:28:35.122Z,9.93
2023-03-16T10:31:02.139Z,10.14
2023-03-16T10:33:37.608Z,10.18
2023-03-16T10:36:19.310Z,10.32
2023-03-16T10:39:01.082Z,10.45
2023-03-16T10:41:43.587Z,10.45
2023-03-16T10:44:27.435Z,10.53
2023-03-16T10:47:08.461Z,10.57
2023-03-16T10:49:49.192Z,10.48
2023-03-16T10:52:41.883Z,10.60
2023-03-16T10:55:23.721Z,10.65
2023-03-16T10:57:55.125Z,10.72
2023-03-16T11:00:46.914Z,10.69
2023-03-16T11:03:37.958Z,10.71
2023-03-16T11:06:35.154Z,10.78
2023-03-16T11:09:08.970Z,10.81
2023-03-16T11:11:40.491Z,10.85
2023-03-16T11:14:15.251Z,10.77
2023-03-16T11:17:16.736Z,10.78
2023-03-16T11:20:19.654Z,10.97
2023-03-16T11:22:48.384Z,10.92
2023-03-16T11:25:28.467Z,10.94
2023-03-16T11:28:36.068Z,11.04
2023-03-16T11:31:32.647Z,10.97
2023-03-16T11:34:07.006Z,10.98
2023-03-16T11:36:57.480Z,11.04
2023-03-16T11:42:37.165Z,11.22
2023-03-16T11:45:31.614Z,11.27
2023-03-16T11:48:39.043Z,11.29
2023-03-16T11:51:21.509Z,11.31
2023-03-16T11:54:03.147Z,11.21
2023-03-16T11:57:08.458Z,11.30
2023-03-16T12:00:02.013Z,11.53
2023-03-16T12:02:50.444Z,11.62
2023-03-16T12:05:45.071Z,11.70
2023-03-16T12:08:35.043Z,11.77
2023-03-16T12:11:13.796Z,11.89
2023-03-16T12:14:10.687Z,12.05
2023-03-16T12:16:51.743Z,12.17
2023-03-16T12:19:59.080Z,12.34
2023-03-16T12:22:44.679Z,12.69
2023-03-16T12:25:42.733Z,12.88
2023-03-16T12:28:24.353Z,12.91
2023-03-16T12:31:20.030Z,13.02
2023-03-16T12:33:55.686Z,12.98
2023-03-16T12:37:12.914Z,13.12
2023-03-16T12:40:02.554Z,13.24
2023-03-16T12:43:03.800Z,13.49
2023-03-16T12:45:52.135Z,13.42
2023-03-16T12:48:30.656Z,13.60
2023-03-16T12:51:22.765Z,13.59
2023-03-16T12:53:59.176Z,13.56
2023-03-16T12:56:48.882Z,13.55
2023-03-16T12:59:22.614Z,13.61
2023-03-16T13:01:52.276Z,13.77
2023-03-16T13:04:23.574Z,13.73
2023-03-16T13:07:01.332Z,13.69
2023-03-16T13:09:37.807Z,13.81
2023-03-16T13:12:10.552Z,13.79
2023-03-16T13:14:48.402Z,13.78
2023-03-16T13:17:17.633Z,13.88
2023-03-16T13:20:24.251Z,13.90
2023-03-16T13:23:18.902Z,13.94
2023-03-16T13:26:00.240Z,13.96
2023-03-16T13:28:39.185Z,13.94
2023-03-16T13:31:20.186Z,14.05
2023-03-16T13:33:51.221Z,14.05
2023-03-16T13:36:25.544Z,14.13
2023-03-16T13:39:24.408Z,14.21
2023-03-16T13:42:26.449Z,14.27
2023-03-16T13:45:16.190Z,14.25
2023-03-16T13:47:47.518Z,14.24
2023-03-16T13:50:16.003Z,14.31
2023-03-16T13:52:44.147Z,14.46
2023-03-16T13:55:24.872Z,14.50
2023-03-16T13:57:55.704Z,14.49
2023-03-16T14:00:29.622Z,14.50
2023-03-16T14:03:05.147Z,14.39
2023-03-16T14:05:37.630Z,14.37
2023-03-16T14:08:04.996Z,14.50
2023-03-16T14:10:36.939Z,14.59
2023-03-16T14:13:09.655Z,14.68
2023-03-16T14:15:39.045Z,14.68
2023-03-16T14:18:27.405Z,14.70
2023-03-16T14:23:43.891Z,14.64
2023-03-16T14:26:16.492Z,14.67
2023-03-16T14:29:16.983Z,14.63
2023-03-16T14:31:47.667Z,14.60
2023-03-16T14:34:29.688Z,14.60
2023-03-16T14:37:20.113Z,14.53
2023-03-16T14:40:01.645Z,14.50
2023-03-16T14:42:35.319Z,14.52
2023-03-16T14:45:15.069Z,14.46
2023-03-16T14:47:47.447Z,14.43
2023-03-16T14:50:19.841Z,14.52
2023-03-16T14:52:47.323Z,14.45
2023-03-16T14:55:28.449Z,14.40
2023-03-16T14:57:55.117Z,14.38
2023-03-16T15:00:23.695Z,14.34
2023-03-16T15:03:02.541Z,14.36
2023-03-16T15:06:00.653Z,14.38
2023-03-16T15:08:53.582Z,14.21
2023-03-16T15:11:21.704Z,13.99
2023-03-16T15:13:55.993Z,13.83
2023-03-16T15:16:23.001Z,13.78
2023-03-16T15:21:53.022Z,13.79
2023-03-16T15:24:26.613Z,13.77
2023-03-16T15:29:41.510Z,13.73
2023-03-16T15:32:13.302Z,13.90
2023-03-16T15:34:49.701Z,14.00
2023-03-16T15:37:18.589Z,14.10
2023-03-16T15:39:46.834Z,14.24
2023-03-16T15:42:18.474Z,14.14
2023-03-16T15:44:48.690Z,14.03
2023-03-16T15:47:18.059Z,13.96
2023-03-16T15:49:48.101Z,13.91
2023-03-16T15:52:35.017Z,13.90
2023-03-16T15:55:10.828Z,13.92
2023-03-16T15:57:37.185Z,13.94
2023-03-16T16:00:04.367Z,13.97
2023-03-16T16:02:33.311Z,14.04
2023-03-16T16:05:00.130Z,14.11
2023-03-16T16:07:29.806Z,14.12
2023-03-16T16:10:09.384Z,14.07
2023-03-16T16:12:35.911Z,13.97
2023-03-16T16:15:06.929Z,13.89
2023-03-16T16:17:50.674Z,13.84
2023-03-16T16:20:35.958Z,13.81
2023-03-16T16:23:10.756Z,13.75
2023-03-16T16:25:41.863Z,13.68
2023-03-16T16:28:34.787Z,13.54
2023-03-16T16:31:01.912Z,13.44
2023-03-16T16:33:36.016Z,13.38
2023-03-16T16:36:13.716Z,13.37
2023-03-16T16:38:40.351Z,13.30
2023-03-16T16:41:09.061Z,13.28
2023-03-16T16:43:42.639Z,13.23
2023-03-16T16:49:13.353Z,13.17
2023-03-16T16:54:29.581Z,13.03
2023-03-16T16:56:58.554Z,12.94
2023-03-16T16:59:33.128Z,12.85
2023-03-16T17:02:22.544Z,12.73
2023-03-16T17:04:54.514Z,12.65
2023-03-16T17:07:24.734Z,12.56
2023-03-16T17:09:58.749Z,12.45
2023-03-16T17:12:25.525Z,12.32
2023-03-16T17:14:52.002Z,12.19
2023-03-16T17:17:21.586Z,12.10
2023-03-16T17:19:51.596Z,11.99
2023-03-16T17:22:30.858Z,11.88
2023-03-16T17:24:57.414Z,11.80
2023-03-16T17:27:48.561Z,11.68
2023-03-16T17:30:27.653Z,11.60
2023-03-16T17:33:02.773Z,11.47
2023-03-16T17:35:32.917Z,11.37
2023-03-16T17:37:59.489Z,11.30
2023-03-16T17:40:25.946Z,11.26
2023-03-16T17:42:57.943Z,11.20
2023-03-16T17:45:27.693Z,11.14
2023-03-16T17:47:58.318Z,11.04
2023-03-16T17:50:31.385Z,10.98
2023-03-16T17:53:11.623Z,10.96
2023-03-16T17:58:26.878Z,10.82
2023-03-16T18:00:57.289Z,10.81
2023-03-16T18:03:30.760Z,10.72
2023-03-16T18:05:59.380Z,10.70
2023-03-16T18:08:37.733Z,10.66
2023-03-16T18:11:12.606Z,10.64
2023-03-16T18:13:42.386Z,10.57
2023-03-16T18:16:20.402Z,10.56
2023-03-16T18:18:46.943Z,10.49
2023-03-16T18:21:25.992Z,10.42
2023-03-16T18:23:53.914Z,10.40
2023-03-16T18:26:29.625Z,10.34
2023-03-16T18:28:59.772Z,10.30
2023-03-16T18:31:31.146Z,10.25
2023-03-16T18:34:07.139Z,10.21
2023-03-16T18:36:39.884Z,10.19
2023-03-16T18:39:16.076Z,10.11
2023-03-16T18:41:44.595Z,10.04
2023-03-16T18:44:19.989Z,10.00
2023-03-16T18:46:49.896Z,9.98
2023-03-16T18:49:29.632Z,9.94
2023-03-16T18:52:01.691Z,9.93
2023-03-16T18:54:33.727Z,9.87
2023-03-16T18:57:04.370Z,9.82
2023-03-16T18:59:32.167Z,9.80
2023-03-16T19:02:02.615Z,9.77
2023-03-16T19:04:32.646Z,9.74
2023-03-16T19:07:10.970Z,9.71
2023-03-16T19:09:44.987Z,9.68
2023-03-16T19:12:18.746Z,9.63
2023-03-16T19:14:48.253Z,9.56
2023-03-16T19:17:17.492Z,9.49
2023-03-16T19:19:51.259Z,9.47
2023-03-16T19:22:21.830Z,9.40
2023-03-16T19:25:03.372Z,9.38
2023-03-16T19:27:36.814Z,9.35
2023-03-16T19:30:04.271Z,9.34
2023-03-16T19:32:38.501Z,9.29
2023-03-16T19:35:20.830Z,9.31
2023-03-16T19:37:47.546Z,9.29
2023-03-16T19:43:09.089Z,9.25
2023-03-16T19:45:35.487Z,9.24
2023-03-16T19:48:04.667Z,9.21
2023-03-16T19:50:33.380Z,9.20
2023-03-16T19:53:00.108Z,9.17
2023-03-16T19:55:38.317Z,9.15
2023-03-16T19:58:10.013Z,9.11
2023-03-16T20:00:43.747Z,9.12
2023-03-16T20:03:15.906Z,9.10
2023-03-16T20:05:45.528Z,9.04
2023-03-16T20:08:26.502Z,8.98
2023-03-16T20:11:21.362Z,8.97
2023-03-16T20:13:48.607Z,8.93
2023-03-16T20:16:23.207Z,8.91
2023-03-16T20:18:55.809Z,8.85
2023-03-16T20:21:23.364Z,8.84
2023-03-16T20:23:52.609Z,8.83
2023-03-16T20:26:28.055Z,8.78
2023-03-16T20:28:58.017Z,8.71
2023-03-16T20:31:29.776Z,8.67
2023-03-16T20:33:59.586Z,8.69
2023-03-16T20:36:29.627Z,8.69
2023-03-16T20:39:03.022Z,8.69
2023-03-16T20:44:21.333Z,8.71
2023-03-16T20:46:51.895Z,8.64
2023-03-16T20:49:30.043Z,8.61
2023-03-16T20:51:58.674Z,8.59
2023-03-16T20:54:26.131Z,8.63
2023-03-16T20:56:52.646Z,8.58
2023-03-16T20:59:28.133Z,8.61
2023-03-16T21:01:57.326Z,8.63
2023-03-16T21:04:29.977Z,8.59
2023-03-16T21:06:59.356Z,8.62
2023-03-16T21:11:56.183Z,8.61
2023-03-16T21:14:24.098Z,8.57
2023-03-16T21:16:54.045Z,8.53
2023-03-16T21:19:26.055Z,8.50
2023-03-16T21:21:53.255Z,8.46
2023-03-16T21:24:29.085Z,8.49
2023-03-16T21:26:55.482Z,8.52
2023-03-16T21:29:26.082Z,8.48
2023-03-16T21:31:52.634Z,8.42
2023-03-16T21:34:32.966Z,8.40
2023-03-16T21:36:59.476Z,8.39
2023-03-16T21:39:29.491Z,8.33
2023-03-16T21:41:59.416Z,8.37
2023-03-16T21:44:26.013Z,8.41
2023-03-16T21:46:52.534Z,8.42
2023-03-16T21:49:22.054Z,8.40
2023-03-16T21:51:49.971Z,8.35
2023-03-16T21:54:19.562Z,8.27
2023-03-16T21:56:50.284Z,8.29
2023-03-16T21:59:17.110Z,8.27
2023-03-16T22:02:01.323Z,8.23
2023-03-16T22:04:33.673Z,8.20
2023-03-16T22:07:00.275Z,8.18
2023-03-16T22:09:30.210Z,8.14
2023-03-16T22:12:00.902Z,8.17
2023-03-16T22:14:30.453Z,8.14
2023-03-16T22:17:00.330Z,8.13
2023-03-16T22:19:32.118Z,8.14
2023-03-16T22:22:02.835Z,8.12
2023-03-16T22:24:30.857Z,8.08
2023-03-16T22:27:00.594Z,8.07
2023-03-16T22:29:35.653Z,8.06
2023-03-16T22:32:15.928Z,8.01
2023-03-16T22:34:48.207Z,7.99
2023-03-16T22:40:14.534Z,7.92
2023-03-16T22:43:04.302Z,7.92
2023-03-16T22:45:36.245Z,7.93
2023-03-16T22:48:16.605Z,7.95
2023-03-16T22:50:43.146Z,7.93
2023-03-16T22:53:19.925Z,7.95
2023-03-16T22:55:59.676Z,7.97
2023-03-16T22:58:38.153Z,7.99
2023-03-16T23:01:44.890Z,8.01
2023-03-16T23:04:26.576Z,8.01
2023-03-16T23:06:53.570Z,8.00
2023-03-16T23:09:24.090Z,7.98
2023-03-16T23:11:54.018Z,7.95
2023-03-16T23:14:50.246Z,7.99
2023-03-16T23:17:25.278Z,7.98
2023-03-16T23:19:54.485Z,8.02
2023-03-16T23:22:20.883Z,8.06
2023-03-16T23:24:52.263Z,8.10
2023-03-16T23:27:22.358Z,8.11
2023-03-16T23:29:51.192Z,8.14
2023-03-16T23:32:20.016Z,8.19
2023-03-16T23:35:06.425Z,8.18
2023-03-16T23:37:53.368Z,8.19
2023-03-16T23:40:21.636Z,8.21
2023-03-16T23:42:49.817Z,8.22
2023-03-16T23:45:31.730Z,8.21
2023-03-16T23:48:05.744Z,8.21
2023-03-16T23:50:35.562Z,8.20
2023-03-16T23:55:49.351Z,8.09
2023-03-16T23:58:16.274Z,8.06
